1863 NOT_NAMED (1863111S13081)


IBTrACS version v04r00. Visit IBTrACS website for data access.
Please direct all questions to the IBTrACS Q and A forum

Storm track - Intensity - Wind Radii - Intensity Data - Source Data - All data

Summary Information

Storm ID 1863111S13081
Start Apr 21 06Z
End Apr 27 06Z
ATCF IDs
Track status Best track data.
Spur track This storm is a spur track associated with the main storm: 1863111S13081

Storm track plot

Map of storm track

Intensity plots

No Intensity information for this storm


Radial wind information

No radial wind information for this storm


Position and Intensity Table

BASIN ISO_TIME_________ NATURE LAT LON
degrees north degrees east
SI 1863-04-21 06:00:00 NR -12.90 80.60
SI 09:00:00 NR -12.97 80.40
SI 12:00:00 NR -13.05 80.20
SI 15:00:00 NR -13.12 79.99
SI 18:00:00 NR -13.20 79.78
SI 21:00:00 NR -13.27 79.57
SI 1863-04-22 00:00:00 NR -13.35 79.35
SI 03:00:00 NR -13.42 79.13
SI 06:00:00 NR -13.50 78.90
SI 09:00:00 NR -13.58 78.66
SI 12:00:00 NR -13.66 78.42
SI 15:00:00 NR -13.74 78.16
SI 18:00:00 NR -13.83 77.90
SI 21:00:00 NR -13.92 77.64
SI 1863-04-23 00:00:00 NR -14.01 77.36
SI 03:00:00 NR -14.10 77.08
SI 06:00:00 NR -14.20 76.80
SI 09:00:00 NR -14.31 76.50
SI 12:00:00 NR -14.41 76.19
SI 15:00:00 NR -14.53 75.88
SI 18:00:00 NR -14.64 75.57
SI 21:00:00 NR -14.76 75.26
SI 1863-04-24 00:00:00 NR -14.87 74.96
SI 03:00:00 NR -14.99 74.67
SI 06:00:00 NR -15.10 74.40
SI 09:00:00 NR -15.20 74.16
SI 12:00:00 NR -15.29 73.94
SI 15:00:00 NR -15.39 73.74
SI 18:00:00 NR -15.48 73.53
SI 21:00:00 NR -15.58 73.33
SI 1863-04-25 00:00:00 NR -15.68 73.13
SI 03:00:00 NR -15.79 72.92
SI 06:00:00 NR -15.90 72.70
SI 09:00:00 NR -16.02 72.44
SI 12:00:00 NR -16.15 72.17
SI 15:00:00 NR -16.28 71.89
SI 18:00:00 NR -16.41 71.61
SI 21:00:00 NR -16.55 71.32
SI 1863-04-26 00:00:00 NR -16.70 71.04
SI 03:00:00 NR -16.85 70.77
SI 06:00:00 NR -17.00 70.50
SI 09:00:00 NR -17.16 70.25
SI 12:00:00 NR -17.31 70.00
SI 15:00:00 NR -17.47 69.77
SI 18:00:00 NR -17.64 69.55
SI 21:00:00 NR -17.80 69.33
SI 1863-04-27 00:00:00 NR -17.97 69.12
SI 03:00:00 NR -18.13 68.91
SI 06:00:00 NR -18.30 68.70

Source Information

Agency Information
USA
TOKYO
CMA
HKO
NEWDELHI
REUNION WMO-Best-Tracks.txt:Line=517:xxxx863075
BOM
NADI
WELLINGTON
DS824
TD9636
TD9635
NEUMANN
MLC

All available IBTrACS Data

SEASON BASIN SUBBASIN ISO_TIME_________ NATURE LAT LON WMO AGENCY DIST2LAND LANDFALL IFLAG USA SSHS REUNION LAT REUNION LON REUNION TYPE REUNION TNUM STORM SPEED STORM DIR
Year degrees north degrees east km km 1 degrees north degrees east 1 kts degrees
1863 SI MM 1863-04-21 06:00:00 NR -12.90 80.60 2106 2106 _____O________ -1 -12.90 80.60 99 9.90 4 249
1863 SI MM 09:00:00 NR -12.97 80.40 2117 2117 _____P________ -1 -12.97 80.40 99 4 250
1863 SI MM 12:00:00 NR -13.05 80.20 2118 2118 _____P________ -1 -13.05 80.20 99 4 250
1863 SI MM 15:00:00 NR -13.12 79.99 2129 2129 _____P________ -1 -13.12 79.99 99 4 250
1863 SI MM 18:00:00 NR -13.20 79.78 2141 2141 _____P________ -1 -13.20 79.78 99 4 250
1863 SI MM 21:00:00 NR -13.27 79.57 2153 2153 _____P________ -1 -13.27 79.57 99 4 250
1863 SI MM 1863-04-22 00:00:00 NR -13.35 79.35 2155 2155 _____P________ -1 -13.35 79.35 99 5 250
1863 SI MM 03:00:00 NR -13.42 79.13 2168 2168 _____P________ -1 -13.42 79.13 99 5 251
1863 SI MM 06:00:00 NR -13.50 78.90 reunion 2181 2181 _____O________ -1 -13.50 78.90 99 9.90 5 251
1863 SI MM 09:00:00 NR -13.58 78.66 2194 2194 _____P________ -1 -13.58 78.66 99 5 251
1863 SI MM 12:00:00 NR -13.66 78.42 2209 2209 _____P________ -1 -13.66 78.42 99 5 251
1863 SI MM 15:00:00 NR -13.74 78.16 2211 2211 _____P________ -1 -13.74 78.16 99 5 251
1863 SI MM 18:00:00 NR -13.83 77.90 2227 2227 _____P________ -1 -13.83 77.90 99 5 251
1863 SI MM 21:00:00 NR -13.92 77.64 2221 2196 _____P________ -1 -13.92 77.64 99 6 251
1863 SI MM 1863-04-23 00:00:00 NR -14.01 77.36 2196 2162 _____P________ -1 -14.01 77.36 99 6 251
1863 SI MM 03:00:00 NR -14.10 77.08 2162 2128 _____P________ -1 -14.10 77.08 99 6 250
1863 SI MM 06:00:00 NR -14.20 76.80 reunion 2128 2094 _____O________ -1 -14.20 76.80 99 9.90 6 250
1863 SI MM 09:00:00 NR -14.31 76.50 2094 2060 _____P________ -1 -14.31 76.50 99 6 250
1863 SI MM 12:00:00 NR -14.41 76.19 2060 2025 _____P________ -1 -14.41 76.19 99 6 250
1863 SI MM 15:00:00 NR -14.53 75.88 2025 1991 _____P________ -1 -14.53 75.88 99 6 249
1863 SI MM 18:00:00 NR -14.64 75.57 1991 1953 _____P________ -1 -14.64 75.57 99 6 249
1863 SI MM 21:00:00 NR -14.76 75.26 1953 1919 _____P________ -1 -14.76 75.26 99 6 249
1863 SI MM 1863-04-24 00:00:00 NR -14.87 74.96 1919 1885 _____P________ -1 -14.87 74.96 99 6 248
1863 SI MM 03:00:00 NR -14.99 74.67 1885 1851 _____P________ -1 -14.99 74.67 99 6 247
1863 SI MM 06:00:00 NR -15.10 74.40 reunion 1851 1827 _____O________ -1 -15.10 74.40 99 9.90 5 247
1863 SI MM 09:00:00 NR -15.20 74.16 1827 1803 _____P________ -1 -15.20 74.16 99 5 246
1863 SI MM 12:00:00 NR -15.29 73.94 1793 1769 _____P________ -1 -15.29 73.94 99 5 245
1863 SI MM 15:00:00 NR -15.39 73.74 1769 1745 _____P________ -1 -15.39 73.74 99 4 244
1863 SI MM 18:00:00 NR -15.48 73.53 1745 1721 _____P________ -1 -15.48 73.53 99 4 244
1863 SI MM 21:00:00 NR -15.58 73.33 1721 1697 _____P________ -1 -15.58 73.33 99 4 243
1863 SI MM 1863-04-25 00:00:00 NR -15.68 73.13 1697 1673 _____P________ -1 -15.68 73.13 99 4 242
1863 SI MM 03:00:00 NR -15.79 72.92 1673 1649 _____P________ -1 -15.79 72.92 99 5 242
1863 SI MM 06:00:00 NR -15.90 72.70 reunion 1649 1625 _____O________ -1 -15.90 72.70 99 9.90 5 243
1863 SI MM 09:00:00 NR -16.02 72.44 1615 1591 _____P________ -1 -16.02 72.44 99 6 244
1863 SI MM 12:00:00 NR -16.15 72.17 1591 1553 _____P________ -1 -16.15 72.17 99 6 244
1863 SI MM 15:00:00 NR -16.28 71.89 1553 1519 _____P________ -1 -16.28 71.89 99 6 244
1863 SI MM 18:00:00 NR -16.41 71.61 1519 1485 _____P________ -1 -16.41 71.61 99 6 243
1863 SI MM 21:00:00 NR -16.55 71.32 1482 1458 _____P________ -1 -16.55 71.32 99 6 242
1863 SI MM 1863-04-26 00:00:00 NR -16.70 71.04 1448 1424 _____P________ -1 -16.70 71.04 99 6 241
1863 SI MM 03:00:00 NR -16.85 70.77 1424 1387 _____P________ -1 -16.85 70.77 99 6 240
1863 SI MM 06:00:00 NR -17.00 70.50 reunion 1387 1363 _____O________ -1 -17.00 70.50 99 9.90 6 238
1863 SI MM 09:00:00 NR -17.16 70.25 1350 1326 _____P________ -1 -17.16 70.25 99 6 236
1863 SI MM 12:00:00 NR -17.31 70.00 1326 1300 _____P________ -1 -17.31 70.00 99 6 235
1863 SI MM 15:00:00 NR -17.47 69.77 1300 1276 _____P________ -1 -17.47 69.77 99 5 233
1863 SI MM 18:00:00 NR -17.64 69.55 1266 1240 _____P________ -1 -17.64 69.55 99 5 232
1863 SI MM 21:00:00 NR -17.80 69.33 1240 1214 _____P________ -1 -17.80 69.33 99 5 231
1863 SI MM 1863-04-27 00:00:00 NR -17.97 69.12 1214 1191 _____P________ -1 -17.97 69.12 99 5 230
1863 SI MM 03:00:00 NR -18.13 68.91 1191 1165 _____P________ -1 -18.13 68.91 99 5 230
1863 SI MM 06:00:00 NR -18.30 68.70 reunion 1165 _____O________ -1 -18.30 68.70 99 9.90 5 230